Time;durP1;ratioP1;P1;durP2;ratioP2;P2;SDS_P1;SDS_P2;PMS_P1;PMS_P2;Temp;Humidity;BMP_temperature;BMP_pressure;BME280_temperature;BME280_humidity;BME280_pressure;Samples;Min_cycle;Max_cycle;Signal;HPM_P1;HPM_P2
2022/10/02 00:01:03;;;;;;;;;;;;;;;20.66;44.19;95953.00;10529843;27;3054;-44
2022/10/02 00:06:23;;;;;;;;;;;;;;;20.65;44.15;95941.66;10524546;28;3277;-45
2022/10/02 00:11:26;;;;;;;;;;;;;;;20.63;44.37;95946.41;10508064;28;2956;-45
2022/10/02 00:16:32;;;;;;;;;;;;;;;20.64;44.42;95955.91;10532824;28;2685;-47
2022/10/02 00:21:42;;;;;;;;;;;;;;;20.63;44.35;95969.34;10536263;28;2677;-43
2022/10/02 00:26:48;;;;;;;;;;;;;;;20.60;44.16;95985.69;10507019;28;2967;-44
2022/10/02 00:31:49;;;;;;;;;;;;;;;20.58;44.33;95983.31;10517480;28;3008;-46
2022/10/02 00:36:52;;;;;;;;;;;;;;;20.55;44.39;95994.38;10520288;28;3018;-46
2022/10/02 00:42:01;;;;;;;;;;;;;;;20.55;44.61;95999.63;10523875;28;2835;-45
2022/10/02 00:47:23;;;;;;;;;;;;;;;20.53;44.43;96016.75;10537318;28;2998;-44
2022/10/02 00:52:30;;;;;;;;;;;;;;;20.52;44.56;96010.72;10517711;28;2650;-46
2022/10/02 00:57:31;;;;;;;;;;;;;;;20.49;44.53;96010.44;10528331;28;2829;-46
2022/10/02 01:03:00;;;;;;;;;;;;;;;20.49;44.80;96005.19;10520280;28;3263;-44
2022/10/02 01:08:01;;;;;;;;;;;;;;;20.49;44.44;95994.63;10499613;28;2987;-44
2022/10/02 01:13:05;;;;;;;;;;;;;;;20.46;44.68;95988.09;10519876;28;2971;-44
2022/10/02 01:18:05;;;;;;;;;;;;;;;20.45;44.67;95996.22;10525013;28;3024;-47
2022/10/02 01:23:24;;;;;;;;;;;;;;;20.46;44.72;96027.59;10522378;28;2948;-44
2022/10/02 01:28:25;;;;;;;;;;;;;;;20.46;44.77;96026.78;10511239;28;3066;-45
2022/10/02 01:33:25;;;;;;;;;;;;;;;20.46;44.69;96032.84;10527883;28;2849;-46
2022/10/02 01:38:25;;;;;;;;;;;;;;;20.44;44.70;96019.16;10518513;28;3093;-44
2022/10/02 01:43:27;;;;;;;;;;;;;;;20.43;44.60;96020.19;10510487;28;3067;-46
2022/10/02 01:48:37;;;;;;;;;;;;;;;20.42;44.58;96002.84;10526147;28;2996;-45
2022/10/02 01:53:44;;;;;;;;;;;;;;;20.40;44.69;95991.00;10522533;28;2957;-44
2022/10/02 01:59:04;;;;;;;;;;;;;;;20.41;44.76;95997.81;10525268;28;3013;-47
2022/10/02 02:04:23;;;;;;;;;;;;;;;20.40;44.63;95986.53;10509418;28;3063;-48
2022/10/02 02:09:37;;;;;;;;;;;;;;;20.39;44.92;95986.75;10521130;28;2766;-45
2022/10/02 02:14:39;;;;;;;;;;;;;;;20.40;44.55;96007.59;10524658;28;2974;-47
2022/10/02 02:19:44;;;;;;;;;;;;;;;20.36;44.60;96011.78;10530331;28;2932;-45
2022/10/02 02:24:56;;;;;;;;;;;;;;;20.38;44.77;96004.41;10515150;28;2980;-46
2022/10/02 02:29:59;;;;;;;;;;;;;;;20.35;44.84;96010.22;10517011;28;2972;-46
2022/10/02 02:35:01;;;;;;;;;;;;;;;20.33;44.75;96001.00;10519132;28;2709;-44
2022/10/02 02:40:21;;;;;;;;;;;;;;;20.34;44.80;95999.94;10518726;28;2995;-43
2022/10/02 02:45:21;;;;;;;;;;;;;;;20.32;44.93;96002.06;10537196;28;2733;-45
2022/10/02 02:50:28;;;;;;;;;;;;;;;20.32;44.84;96005.47;10526609;28;3328;-47
2022/10/02 02:55:32;;;;;;;;;;;;;;;20.30;44.88;95999.69;10519631;28;2706;-45
2022/10/02 03:00:32;;;;;;;;;;;;;;;20.30;44.75;95997.03;10498936;28;2713;-45
2022/10/02 03:05:33;;;;;;;;;;;;;;;20.28;44.72;95996.53;10520809;28;3138;-45
2022/10/02 03:10:37;;;;;;;;;;;;;;;20.25;44.82;96007.59;10537147;28;2748;-44
2022/10/02 03:15:46;;;;;;;;;;;;;;;20.26;44.70;96017.84;10533036;28;2722;-46
2022/10/02 03:20:51;;;;;;;;;;;;;;;20.25;44.80;96007.59;10532902;28;3020;-44
2022/10/02 03:25:51;;;;;;;;;;;;;;;20.24;44.95;96009.44;10534435;28;3023;-44
2022/10/02 03:30:52;;;;;;;;;;;;;;;20.28;44.89;96009.69;10523786;28;2987;-45
2022/10/02 03:35:52;;;;;;;;;;;;;;;20.25;45.11;96004.97;10501202;28;3006;-47
2022/10/02 03:40:58;;;;;;;;;;;;;;;20.29;44.86;96013.91;10521924;28;2958;-45
2022/10/02 03:45:59;;;;;;;;;;;;;;;20.34;44.81;96007.84;10520337;28;2852;-45
2022/10/02 03:50:59;;;;;;;;;;;;;;;20.35;44.55;96001.53;10527569;28;2760;-47
2022/10/02 03:56:08;;;;;;;;;;;;;;;20.36;44.20;96003.88;10525985;28;3253;-44
2022/10/02 04:01:16;;;;;;;;;;;;;;;20.36;44.17;95995.97;10528639;28;3035;-44
2022/10/02 04:06:16;;;;;;;;;;;;;;;20.39;44.04;95999.94;10539630;28;2956;-45
2022/10/02 04:11:31;;;;;;;;;;;;;;;20.47;44.13;95994.91;10523371;28;3015;-44
2022/10/02 04:16:51;;;;;;;;;;;;;;;20.46;43.88;95996.00;10535663;28;2682;-46
2022/10/02 04:22:10;;;;;;;;;;;;;;;20.47;43.78;95994.91;10534231;28;3073;-44
2022/10/02 04:27:13;;;;;;;;;;;;;;;20.50;43.88;95997.03;10522926;28;2828;-43
2022/10/02 04:32:14;;;;;;;;;;;;;;;20.52;43.53;95994.91;10523166;28;3031;-46
2022/10/02 04:37:33;;;;;;;;;;;;;;;20.55;43.83;95994.38;10523976;28;2694;-44
2022/10/02 04:42:37;;;;;;;;;;;;;;;20.58;43.56;95996.47;10509726;28;2979;-44
2022/10/02 04:47:43;;;;;;;;;;;;;;;20.59;43.39;95990.16;10519859;28;3011;-44
2022/10/02 04:52:46;;;;;;;;;;;;;;;20.62;43.44;95991.47;10534980;28;2797;-44
2022/10/02 04:57:50;;;;;;;;;;;;;;;20.63;43.42;95991.19;10521911;28;3067;-45
2022/10/02 05:03:09;;;;;;;;;;;;;;;20.66;43.49;95990.66;10526613;28;2797;-45
2022/10/02 05:08:16;;;;;;;;;;;;;;;20.68;43.72;95988.56;10521466;28;2911;-44
2022/10/02 05:13:22;;;;;;;;;;;;;;;20.70;43.58;95985.63;10536831;28;3134;-44
2022/10/02 05:18:26;;;;;;;;;;;;;;;20.71;43.51;95993.25;10522897;28;3019;-46
2022/10/02 05:23:37;;;;;;;;;;;;;;;20.72;43.36;96000.13;10522402;28;2717;-46
2022/10/02 05:28:41;;;;;;;;;;;;;;;20.74;43.41;95992.75;10506476;28;2823;-43
2022/10/02 05:33:41;;;;;;;;;;;;;;;20.77;43.53;96000.09;10521485;28;3043;-44
2022/10/02 05:39:00;;;;;;;;;;;;;;;20.77;43.16;95989.56;10515301;28;2677;-46
2022/10/02 05:44:05;;;;;;;;;;;;;;;20.79;43.25;95994.56;10518468;28;2685;-44
2022/10/02 05:49:07;;;;;;;;;;;;;;;20.81;43.16;95987.97;10540746;28;2746;-44
2022/10/02 05:54:11;;;;;;;;;;;;;;;20.83;43.40;95991.16;10503935;28;2779;-44
2022/10/02 05:59:21;;;;;;;;;;;;;;;20.85;43.14;95994.31;10526677;28;2446;-44
2022/10/02 06:04:35;;;;;;;;;;;;;;;20.87;43.43;95994.03;10525019;28;2704;-44
2022/10/02 06:09:35;;;;;;;;;;;;;;;20.88;43.23;96003.50;10513450;28;2896;-46
2022/10/02 06:14:36;;;;;;;;;;;;;;;20.90;43.33;96015.34;10512412;28;2770;-44
2022/10/02 06:19:41;;;;;;;;;;;;;;;20.92;43.22;96007.16;10522269;28;2760;-44
2022/10/02 06:24:55;;;;;;;;;;;;;;;20.94;43.46;96013.75;10518386;28;2689;-46
2022/10/02 06:29:59;;;;;;;;;;;;;;;20.96;43.36;96008.19;10501497;28;2857;-46
2022/10/02 06:35:00;;;;;;;;;;;;;;;20.96;43.15;96018.75;10533770;28;2713;-43
2022/10/02 06:40:07;;;;;;;;;;;;;;;20.98;43.18;96030.59;10514345;28;2730;-44
2022/10/02 06:45:07;;;;;;;;;;;;;;;20.99;43.72;96024.28;10536909;28;2713;-44
2022/10/02 06:50:43;;;;;;;;;;;;;;;21.06;45.03;96029.31;10520012;28;2741;-45
2022/10/02 06:55:59;;;;;;;;;;;;;;;21.08;45.33;96036.94;10489619;28;2704;-44
2022/10/02 07:01:09;;;;;;;;;;;;;;;21.04;45.26;96032.19;10552989;27;2378;-44
2022/10/02 07:06:12;;;;;;;;;;;;;;;21.05;44.70;96032.97;10543240;28;2482;-44
2022/10/02 07:11:31;;;;;;;;;;;;;;;21.02;44.01;96021.13;10541289;28;2704;-45
2022/10/02 07:16:37;;;;;;;;;;;;;;;21.01;44.09;96019.53;10545616;28;2829;-45
2022/10/02 07:21:42;;;;;;;;;;;;;;;21.04;44.36;96029.56;10517242;28;2735;-44
2022/10/02 07:26:45;;;;;;;;;;;;;;;21.04;44.16;96026.16;10529813;28;2777;-44
2022/10/02 07:32:01;;;;;;;;;;;;;;;21.04;44.07;96029.56;10539373;28;2784;-44
2022/10/02 07:37:30;;;;;;;;;;;;;;;21.03;43.86;96025.34;10513266;28;2727;-49
2022/10/02 07:42:31;;;;;;;;;;;;;;;21.04;43.86;96023.50;10527041;28;2525;-44
2022/10/02 07:47:36;;;;;;;;;;;;;;;21.02;43.83;96018.50;10531447;28;3081;-45
2022/10/02 07:52:40;;;;;;;;;;;;;;;21.02;44.17;96018.50;10546520;27;2495;-46
2022/10/02 07:57:59;;;;;;;;;;;;;;;21.00;43.92;96009.25;10523001;28;2733;-48
2022/10/02 08:03:25;;;;;;;;;;;;;;;20.99;43.57;96013.75;10539775;28;2697;-46
2022/10/02 08:08:28;;;;;;;;;;;;;;;20.99;43.98;96015.59;10531021;28;2495;-44
2022/10/02 08:13:40;;;;;;;;;;;;;;;20.98;43.97;96009.50;10536099;28;2824;-45
2022/10/02 08:18:42;;;;;;;;;;;;;;;20.97;43.72;96007.16;10534320;28;2916;-43
2022/10/02 08:23:42;;;;;;;;;;;;;;;20.96;43.76;96000.28;10517801;28;2825;-47
2022/10/02 08:28:46;;;;;;;;;;;;;;;20.95;43.62;95993.47;10512534;28;2756;-45
2022/10/02 08:33:46;;;;;;;;;;;;;;;20.94;43.59;96002.41;10505042;28;2553;-44
2022/10/02 08:38:50;;;;;;;;;;;;;;;20.93;43.52;95990.31;10525134;28;2747;-44
2022/10/02 08:44:08;;;;;;;;;;;;;;;20.92;43.60;95980.81;10504030;28;3199;-44
2022/10/02 08:49:27;;;;;;;;;;;;;;;20.92;43.76;95983.44;10516586;28;2801;-45
2022/10/02 08:54:46;;;;;;;;;;;;;;;20.93;43.35;95980.56;10511150;28;2755;-48
2022/10/02 09:00:02;;;;;;;;;;;;;;;20.94;43.87;95966.31;10522512;28;2769;-45
2022/10/02 09:05:17;;;;;;;;;;;;;;;20.95;43.78;95954.72;10522840;28;2763;-45
2022/10/02 09:10:37;;;;;;;;;;;;;;;20.94;43.68;95955.78;10540943;28;2624;-43
2022/10/02 09:15:40;;;;;;;;;;;;;;;20.94;43.70;95950.50;10529048;28;2451;-44
2022/10/02 09:20:40;;;;;;;;;;;;;;;21.01;44.34;95923.84;10515602;28;2757;-45
2022/10/02 09:25:49;;;;;;;;;;;;;;;21.06;44.87;95943.09;10510204;28;2740;-45
2022/10/02 09:31:02;;;;;;;;;;;;;;;21.13;44.39;95932.25;10521489;28;2852;-46
2022/10/02 09:36:06;;;;;;;;;;;;;;;21.14;44.84;95922.50;10503164;28;2866;-44
2022/10/02 09:41:12;;;;;;;;;;;;;;;21.18;44.67;95907.72;10517372;28;2879;-45
2022/10/02 09:46:32;;;;;;;;;;;;;;;21.15;44.03;95892.44;10533282;28;2472;-45
2022/10/02 09:51:39;;;;;;;;;;;;;;;21.16;44.84;95883.47;10527102;28;2829;-44
2022/10/02 09:56:45;;;;;;;;;;;;;;;21.15;44.31;95884.53;10535592;28;2835;-46
2022/10/02 10:02:00;;;;;;;;;;;;;;;21.11;44.85;95886.94;10532588;28;2475;-46
2022/10/02 10:07:01;;;;;;;;;;;;;;;21.11;45.28;95876.38;10522966;28;2947;-46
2022/10/02 10:12:10;;;;;;;;;;;;;;;21.14;44.85;95875.84;10521572;28;3090;-47
2022/10/02 10:17:47;;;;;;;;;;;;;;;21.13;44.47;95862.94;10536177;28;2585;-45
2022/10/02 10:22:48;;;;;;;;;;;;;;;21.08;44.52;95866.41;10501461;28;2749;-44
2022/10/02 10:28:04;;;;;;;;;;;;;;;21.04;44.31;95863.50;10543370;27;2738;-44
2022/10/02 10:33:10;;;;;;;;;;;;;;;21.06;44.46;95858.00;10536628;28;2668;-48
2022/10/02 10:38:31;;;;;;;;;;;;;;;21.04;44.16;95855.59;10541161;28;2379;-45
2022/10/02 10:43:43;;;;;;;;;;;;;;;21.06;44.60;95837.66;10536725;28;2852;-47
2022/10/02 10:49:05;;;;;;;;;;;;;;;21.08;44.73;95833.97;10520859;28;2686;-46
2022/10/02 10:54:21;;;;;;;;;;;;;;;21.06;44.93;95832.41;10540829;27;2464;-47
2022/10/02 10:59:23;;;;;;;;;;;;;;;21.12;45.28;95835.00;10520261;28;2502;-44
2022/10/02 11:04:38;;;;;;;;;;;;;;;21.10;44.88;95818.69;10522639;28;2729;-44
2022/10/02 11:09:51;;;;;;;;;;;;;;;21.14;45.03;95812.59;10520069;28;2760;-44
2022/10/02 11:14:56;;;;;;;;;;;;;;;21.17;45.18;95806.75;10517957;28;2536;-44
2022/10/02 11:19:56;;;;;;;;;;;;;;;21.14;44.52;95812.59;10528473;28;2783;-43
2022/10/02 11:25:09;;;;;;;;;;;;;;;21.22;44.86;95808.56;10536532;28;2438;-46
2022/10/02 11:30:15;;;;;;;;;;;;;;;21.17;44.49;95804.13;10552145;28;2469;-48
2022/10/02 11:35:34;;;;;;;;;;;;;;;21.20;44.42;95784.34;10534958;28;2807;-48
2022/10/02 11:40:53;;;;;;;;;;;;;;;21.26;45.08;95767.41;10542474;28;2809;-45
2022/10/02 11:45:58;;;;;;;;;;;;;;;21.36;45.35;95768.09;10546892;28;2829;-45
2022/10/02 11:51:02;;;;;;;;;;;;;;;21.34;45.45;95758.91;10535257;28;2534;-46
2022/10/02 11:56:21;;;;;;;;;;;;;;;21.36;45.43;95760.19;10524814;28;3156;-45
2022/10/02 12:01:27;;;;;;;;;;;;;;;20.99;48.82;95765.22;10549300;28;2748;-45
2022/10/02 12:06:46;;;;;;;;;;;;;;;20.78;50.00;95756.69;10538051;28;2750;-45
2022/10/02 12:11:48;;;;;;;;;;;;;;;20.56;51.12;95758.94;10526747;28;2665;-44
2022/10/02 12:17:07;;;;;;;;;;;;;;;20.51;51.09;95740.53;10543998;28;2751;-43
2022/10/02 12:28:05;;;;;;;;;;;;;;;20.42;51.24;95726.38;10527605;28;2738;-44
2022/10/02 12:33:22;;;;;;;;;;;;;;;20.60;50.25;95723.09;10526872;28;2645;-45
2022/10/02 12:38:25;;;;;;;;;;;;;;;20.72;48.91;95697.19;10534760;28;2604;-42
2022/10/02 12:43:31;;;;;;;;;;;;;;;20.79;48.58;95695.00;10541326;28;2747;-45
2022/10/02 12:49:01;;;;;;;;;;;;;;;20.85;47.71;95699.22;10548560;28;2740;-48
2022/10/02 12:54:03;;;;;;;;;;;;;;;20.93;47.93;95706.50;10491067;28;2798;-45
2022/10/02 12:59:09;;;;;;;;;;;;;;;20.96;47.84;95695.41;10552287;28;2740;-46
2022/10/02 13:04:16;;;;;;;;;;;;;;;21.01;48.00;95687.47;10521486;28;3100;-44
2022/10/02 13:09:16;;;;;;;;;;;;;;;21.01;47.72;95695.38;10543315;28;2423;-43
2022/10/02 13:14:25;;;;;;;;;;;;;;;21.05;47.44;95703.53;10546337;27;2464;-43
2022/10/02 13:19:29;;;;;;;;;;;;;;;21.08;47.61;95764.38;10515187;28;2797;-47
2022/10/02 13:24:48;;;;;;;;;;;;;;;21.17;49.03;95788.31;10548368;27;2757;-44
2022/10/02 13:29:51;;;;;;;;;;;;;;;21.20;48.82;95774.59;10537247;28;2935;-46
2022/10/02 13:34:58;;;;;;;;;;;;;;;21.22;48.48;95758.47;10534008;28;2458;-43
2022/10/02 13:40:11;;;;;;;;;;;;;;;21.25;48.36;95776.38;10538888;27;2765;-44
2022/10/02 13:45:24;;;;;;;;;;;;;;;21.26;48.21;95781.38;10530231;28;2649;-44
2022/10/02 13:50:27;;;;;;;;;;;;;;;21.25;47.93;95813.28;10530266;28;2446;-43
2022/10/02 13:55:29;;;;;;;;;;;;;;;21.25;47.58;95813.28;10526828;28;2865;-43
2022/10/02 14:00:39;;;;;;;;;;;;;;;21.23;47.79;95807.50;10531168;28;2747;-43
2022/10/02 14:05:42;;;;;;;;;;;;;;;21.25;47.44;95824.63;10529927;28;2688;-43
2022/10/02 14:10:52;;;;;;;;;;;;;;;21.26;47.26;95846.50;10538778;28;2511;-44
2022/10/02 14:15:58;;;;;;;;;;;;;;;21.25;47.03;95845.69;10539210;28;2801;-43
2022/10/02 14:21:10;;;;;;;;;;;;;;;21.28;47.15;95845.16;10518263;28;2736;-43
2022/10/02 14:26:14;;;;;;;;;;;;;;;21.29;46.68;95835.41;10515239;28;2694;-44
2022/10/02 14:31:23;;;;;;;;;;;;;;;21.26;46.33;95828.03;10525301;28;2475;-43
2022/10/02 14:36:25;;;;;;;;;;;;;;;21.30;46.77;95827.22;10518891;28;2752;-42
2022/10/02 14:41:43;;;;;;;;;;;;;;;21.26;46.20;95835.94;10527247;28;2674;-44
2022/10/02 14:46:58;;;;;;;;;;;;;;;21.30;46.66;95874.69;10528707;28;2486;-46
2022/10/02 14:52:03;;;;;;;;;;;;;;;21.28;46.35;95849.66;10547273;27;2731;-43
2022/10/02 14:57:03;;;;;;;;;;;;;;;21.33;46.98;95846.97;10545348;27;2727;-44
2022/10/02 15:02:09;;;;;;;;;;;;;;;21.34;47.25;95835.34;10536811;28;2423;-44
2022/10/02 15:07:17;;;;;;;;;;;;;;;21.38;47.26;95836.38;10529989;28;2523;-44
2022/10/02 15:12:18;;;;;;;;;;;;;;;21.32;47.66;95856.75;10515197;28;2477;-45
2022/10/02 15:22:45;;;;;;;;;;;;;;;21.30;47.58;95847.53;10537460;28;2444;-44
2022/10/02 15:28:11;;;;;;;;;;;;;;;21.38;47.66;95847.72;10535012;28;2749;-45
2022/10/02 15:33:14;;;;;;;;;;;;;;;21.32;47.77;95851.47;10540168;28;2652;-44
2022/10/02 15:38:34;;;;;;;;;;;;;;;21.30;48.13;95842.25;10525488;28;2486;-46
2022/10/02 15:43:40;;;;;;;;;;;;;;;21.30;48.13;95855.44;10548140;28;2709;-41
2022/10/02 15:48:43;;;;;;;;;;;;;;;21.23;48.52;95852.31;10539839;28;2529;-46
2022/10/02 15:53:47;;;;;;;;;;;;;;;21.24;48.23;95854.69;10549948;28;2434;-44
2022/10/02 15:58:53;;;;;;;;;;;;;;;21.27;48.51;95869.94;10542288;28;2554;-44
2022/10/02 16:04:00;;;;;;;;;;;;;;;21.30;48.00;95892.34;10540386;28;2720;-45
2022/10/02 16:09:07;;;;;;;;;;;;;;;21.26;48.15;95901.88;10530042;28;2697;-45
2022/10/02 16:14:11;;;;;;;;;;;;;;;21.21;48.20;95907.94;10535799;28;2856;-48
2022/10/02 16:19:31;;;;;;;;;;;;;;;21.01;48.29;95919.38;10546007;28;2418;-46
2022/10/02 16:24:42;;;;;;;;;;;;;;;19.74;50.29;95912.06;10540924;28;2746;-45
2022/10/02 16:29:42;;;;;;;;;;;;;;;19.19;51.85;95917.25;10549294;28;2609;-47
2022/10/02 16:34:58;;;;;;;;;;;;;;;19.17;52.33;95909.66;10545263;28;2595;-47
2022/10/02 16:39:59;;;;;;;;;;;;;;;19.63;51.00;95912.34;10544423;28;2649;-48
2022/10/02 16:45:02;;;;;;;;;;;;;;;19.93;50.34;95909.69;10537767;28;2550;-44
2022/10/02 16:50:32;;;;;;;;;;;;;;;20.12;50.04;95922.03;10520760;28;2637;-47
2022/10/02 16:55:46;;;;;;;;;;;;;;;20.28;49.37;95914.91;10522314;28;2614;-46
2022/10/02 17:00:52;;;;;;;;;;;;;;;20.39;49.33;95923.56;10524246;28;2577;-46
2022/10/02 17:06:02;;;;;;;;;;;;;;;20.49;49.59;95919.06;10535211;28;2639;-45
2022/10/02 17:11:04;;;;;;;;;;;;;;;20.65;50.39;95920.59;10528914;28;2721;-46
2022/10/02 17:16:10;;;;;;;;;;;;;;;20.76;50.66;95922.13;10504493;28;2666;-43
2022/10/02 17:26:54;;;;;;;;;;;;;;;20.95;50.48;95951.31;10520438;28;2582;-43
2022/10/02 17:31:55;;;;;;;;;;;;;;;20.96;50.80;95971.31;10509138;28;2534;-47
2022/10/02 17:36:55;;;;;;;;;;;;;;;21.00;50.72;95972.34;10509868;28;2384;-44
2022/10/02 17:42:08;;;;;;;;;;;;;;;21.02;50.26;95976.31;10540934;28;2499;-44
2022/10/02 17:47:14;;;;;;;;;;;;;;;21.11;50.87;95981.03;10527532;28;2622;-45
2022/10/02 17:57:46;;;;;;;;;;;;;;;21.15;50.99;96003.94;10525218;28;2563;-44
2022/10/02 18:02:53;;;;;;;;;;;;;;;21.17;51.33;96030.81;10542145;27;2594;-44
2022/10/02 18:07:57;;;;;;;;;;;;;;;21.19;51.33;96030.53;10528531;28;2544;-44
2022/10/02 18:13:24;;;;;;;;;;;;;;;21.22;53.79;96033.44;10511560;28;2699;-43
2022/10/02 18:19:00;;;;;;;;;;;;;;;21.25;56.96;96035.53;10539443;28;2404;-43
2022/10/02 18:24:09;;;;;;;;;;;;;;;21.20;58.38;96043.47;10498741;28;2553;-44
2022/10/02 18:29:13;;;;;;;;;;;;;;;21.16;58.43;96062.72;10530478;28;2603;-44
2022/10/02 18:34:15;;;;;;;;;;;;;;;21.11;58.75;96054.81;10529539;28;2708;-43
2022/10/02 18:39:24;;;;;;;;;;;;;;;21.05;59.29;96062.78;10535172;28;2321;-45
2022/10/02 18:44:28;;;;;;;;;;;;;;;21.00;59.79;96031.13;10535987;28;2642;-44
2022/10/02 18:49:35;;;;;;;;;;;;;;;20.96;59.82;96032.72;10543937;28;2605;-45
2022/10/02 18:54:35;;;;;;;;;;;;;;;20.92;59.82;96044.84;10535232;28;2772;-46
2022/10/02 18:59:36;;;;;;;;;;;;;;;20.90;60.29;96048.81;10535811;28;2716;-44
2022/10/02 19:04:39;;;;;;;;;;;;;;;20.86;59.84;96043.28;10521735;28;2678;-44
2022/10/02 19:09:40;;;;;;;;;;;;;;;20.87;60.83;96038.81;10514807;28;2778;-44
2022/10/02 19:14:44;;;;;;;;;;;;;;;20.88;61.35;96035.91;10525788;28;2678;-44
2022/10/02 19:19:44;;;;;;;;;;;;;;;20.88;61.98;96056.97;10524597;28;2907;-45
2022/10/02 19:24:46;;;;;;;;;;;;;;;20.89;61.77;96065.69;10520373;28;2662;-43
2022/10/02 19:29:49;;;;;;;;;;;;;;;20.88;62.25;96072.00;10514939;28;2632;-44
2022/10/02 19:34:56;;;;;;;;;;;;;;;20.88;62.30;96072.00;10524518;28;2340;-43
2022/10/02 19:40:00;;;;;;;;;;;;;;;20.86;62.62;96090.72;10495793;28;2540;-43
2022/10/02 19:45:04;;;;;;;;;;;;;;;20.82;62.31;96089.69;10525477;28;2594;-42
2022/10/02 19:50:06;;;;;;;;;;;;;;;20.81;62.16;96093.34;10511102;28;2736;-44
2022/10/02 19:55:21;;;;;;;;;;;;;;;20.78;62.13;96088.63;10542997;27;2705;-42
2022/10/02 20:00:22;;;;;;;;;;;;;;;20.77;62.50;96087.03;10516545;28;2656;-45
2022/10/02 20:05:26;;;;;;;;;;;;;;;20.74;62.06;96095.47;10510165;28;2679;-42
2022/10/02 20:10:32;;;;;;;;;;;;;;;20.74;62.41;96113.13;10547411;27;2605;-45
2022/10/02 20:20:56;;;;;;;;;;;;;;;20.69;62.67;96134.22;10529786;28;2265;-43
2022/10/02 20:25:57;;;;;;;;;;;;;;;20.67;62.49;96136.34;10515896;28;2714;-44
2022/10/02 20:31:00;;;;;;;;;;;;;;;20.66;62.74;96124.22;10520596;28;2587;-44
2022/10/02 20:36:00;;;;;;;;;;;;;;;20.63;62.79;96112.34;10545609;27;2607;-43
2022/10/02 20:41:02;;;;;;;;;;;;;;;20.62;62.64;96121.31;10529715;27;2332;-45
2022/10/02 20:46:36;;;;;;;;;;;;;;;20.61;62.92;96130.25;10549742;27;2536;-42
2022/10/02 20:51:55;;;;;;;;;;;;;;;20.57;62.68;96150.28;10520960;28;2708;-42
2022/10/02 20:57:05;;;;;;;;;;;;;;;20.57;62.69;96158.19;10515698;28;2389;-42
2022/10/02 21:02:06;;;;;;;;;;;;;;;20.55;62.67;96167.38;10528413;28;2288;-43
2022/10/02 21:07:21;;;;;;;;;;;;;;;20.53;62.62;96157.13;10529895;28;2586;-43
2022/10/02 21:12:43;;;;;;;;;;;;;;;20.51;62.58;96172.41;10520699;28;2578;-42
2022/10/02 21:17:46;;;;;;;;;;;;;;;20.50;62.60;96178.75;10530246;27;2626;-42
2022/10/02 21:22:50;;;;;;;;;;;;;;;20.48;62.50;96172.94;10527299;28;2296;-42
2022/10/02 21:28:02;;;;;;;;;;;;;;;20.46;62.90;96175.06;10523625;28;2428;-44
2022/10/02 21:33:03;;;;;;;;;;;;;;;20.45;62.57;96181.34;10512106;28;2579;-42
2022/10/02 21:38:11;;;;;;;;;;;;;;;20.42;62.65;96187.16;10517537;28;2306;-42
2022/10/02 21:43:30;;;;;;;;;;;;;;;20.42;62.92;96202.97;10531063;28;2562;-42
2022/10/02 21:48:49;;;;;;;;;;;;;;;20.40;62.62;96212.16;10508344;28;2670;-42
2022/10/02 21:53:58;;;;;;;;;;;;;;;20.39;62.71;96221.09;10521214;28;2590;-44
2022/10/02 21:59:17;;;;;;;;;;;;;;;20.36;62.57;96211.88;10548595;27;2277;-42
2022/10/02 22:04:20;;;;;;;;;;;;;;;20.36;62.86;96217.13;10534403;28;2518;-45
2022/10/02 22:09:27;;;;;;;;;;;;;;;20.34;62.56;96240.31;10522916;28;2607;-42
2022/10/02 22:14:28;;;;;;;;;;;;;;;20.32;62.80;96239.78;10561021;27;2602;-45
2022/10/02 22:19:29;;;;;;;;;;;;;;;20.32;62.39;96246.91;10536894;28;2651;-43
2022/10/02 22:24:29;;;;;;;;;;;;;;;20.30;62.39;96244.50;10535060;28;2599;-42
2022/10/02 22:29:34;;;;;;;;;;;;;;;20.28;62.74;96255.31;10535136;28;2680;-41
2022/10/02 22:34:37;;;;;;;;;;;;;;;20.27;62.66;96256.38;10541343;28;2602;-41
2022/10/02 22:39:56;;;;;;;;;;;;;;;20.26;62.43;96251.34;10553741;27;2562;-43
2022/10/02 22:44:59;;;;;;;;;;;;;;;20.25;62.59;96252.41;10523290;28;2575;-43
2022/10/02 22:50:05;;;;;;;;;;;;;;;20.23;62.52;96265.03;10522184;28;2289;-45
2022/10/02 22:55:09;;;;;;;;;;;;;;;20.22;62.63;96273.97;10521555;28;2589;-43
2022/10/02 23:00:10;;;;;;;;;;;;;;;20.22;62.64;96284.50;10519403;28;2609;-42
2022/10/02 23:05:19;;;;;;;;;;;;;;;20.20;62.90;96286.59;10519657;28;2681;-42
2022/10/02 23:10:34;;;;;;;;;;;;;;;20.19;62.54;96290.25;10520177;28;2630;-42
2022/10/02 23:15:54;;;;;;;;;;;;;;;20.17;62.35;96293.13;10541296;28;2540;-43
2022/10/02 23:21:03;;;;;;;;;;;;;;;20.16;62.60;96296.03;10524192;28;2436;-43
2022/10/02 23:26:08;;;;;;;;;;;;;;;20.15;62.23;96305.00;10521400;28;2661;-42
2022/10/02 23:31:15;;;;;;;;;;;;;;;20.13;62.74;96299.97;10530774;28;2367;-42
2022/10/02 23:36:19;;;;;;;;;;;;;;;20.12;62.17;96302.84;10522533;28;2349;-42
2022/10/02 23:41:37;;;;;;;;;;;;;;;20.12;62.34;96310.75;10524432;28;2549;-44
2022/10/02 23:46:47;;;;;;;;;;;;;;;20.10;62.44;96308.38;10530583;28;2729;-43
2022/10/02 23:51:53;;;;;;;;;;;;;;;20.10;62.25;96312.84;10522510;28;2622;-43
2022/10/02 23:57:02;;;;;;;;;;;;;;;20.08;61.98;96314.94;10527845;28;2698;-45
